sensor_id;sensor_type;location;lat;lon;timestamp;P1;durP1;ratioP1;P2;durP2;ratioP2
39022;SDS011;25908;51.984;5.928;2023-07-13T00:01:15;9.60;;;1.40;;
39022;SDS011;25908;51.984;5.928;2023-07-13T00:03:41;6.35;;;1.33;;
39022;SDS011;25908;51.984;5.928;2023-07-13T00:06:07;4.25;;;1.38;;
39022;SDS011;25908;51.984;5.928;2023-07-13T00:08:34;6.30;;;1.85;;
39022;SDS011;25908;51.984;5.928;2023-07-13T00:11:00;3.97;;;1.40;;
39022;SDS011;25908;51.984;5.928;2023-07-13T00:13:26;4.43;;;1.40;;
39022;SDS011;25908;51.984;5.928;2023-07-13T00:15:52;4.43;;;1.20;;
39022;SDS011;25908;51.984;5.928;2023-07-13T00:18:19;4.55;;;1.35;;
39022;SDS011;25908;51.984;5.928;2023-07-13T00:20:45;3.95;;;1.20;;
39022;SDS011;25908;51.984;5.928;2023-07-13T00:23:11;3.10;;;1.23;;
39022;SDS011;25908;51.984;5.928;2023-07-13T00:25:37;5.95;;;1.95;;
39022;SDS011;25908;51.984;5.928;2023-07-13T00:28:03;4.53;;;1.23;;
39022;SDS011;25908;51.984;5.928;2023-07-13T00:30:28;3.33;;;1.20;;
39022;SDS011;25908;51.984;5.928;2023-07-13T00:32:54;4.00;;;1.00;;
39022;SDS011;25908;51.984;5.928;2023-07-13T00:35:20;5.10;;;1.40;;
39022;SDS011;25908;51.984;5.928;2023-07-13T00:37:46;5.85;;;1.70;;
39022;SDS011;25908;51.984;5.928;2023-07-13T00:40:12;5.03;;;1.50;;
39022;SDS011;25908;51.984;5.928;2023-07-13T00:42:39;4.47;;;1.23;;
39022;SDS011;25908;51.984;5.928;2023-07-13T00:47:38;4.32;;;1.40;;
39022;SDS011;25908;51.984;5.928;2023-07-13T00:50:05;4.03;;;1.23;;
39022;SDS011;25908;51.984;5.928;2023-07-13T00:52:35;4.95;;;1.17;;
39022;SDS011;25908;51.984;5.928;2023-07-13T00:55:03;4.05;;;1.10;;
39022;SDS011;25908;51.984;5.928;2023-07-13T00:57:29;2.30;;;1.10;;
39022;SDS011;25908;51.984;5.928;2023-07-13T00:59:58;4.25;;;1.25;;
39022;SDS011;25908;51.984;5.928;2023-07-13T01:02:29;5.97;;;1.13;;
39022;SDS011;25908;51.984;5.928;2023-07-13T01:04:56;5.05;;;1.13;;
39022;SDS011;25908;51.984;5.928;2023-07-13T01:07:21;5.85;;;1.20;;
39022;SDS011;25908;51.984;5.928;2023-07-13T01:09:47;2.95;;;0.93;;
39022;SDS011;25908;51.984;5.928;2023-07-13T01:12:13;3.33;;;1.13;;
39022;SDS011;25908;51.984;5.928;2023-07-13T01:14:39;6.93;;;1.60;;
39022;SDS011;25908;51.984;5.928;2023-07-13T01:17:05;6.28;;;1.20;;
39022;SDS011;25908;51.984;5.928;2023-07-13T01:19:41;6.88;;;1.20;;
39022;SDS011;25908;51.984;5.928;2023-07-13T01:22:17;4.57;;;1.20;;
39022;SDS011;25908;51.984;5.928;2023-07-13T01:24:45;3.97;;;1.15;;
39022;SDS011;25908;51.984;5.928;2023-07-13T01:27:13;6.22;;;1.42;;
39022;SDS011;25908;51.984;5.928;2023-07-13T01:29:41;3.92;;;1.20;;
39022;SDS011;25908;51.984;5.928;2023-07-13T01:32:09;4.10;;;1.10;;
39022;SDS011;25908;51.984;5.928;2023-07-13T01:34:36;3.85;;;1.13;;
39022;SDS011;25908;51.984;5.928;2023-07-13T01:37:02;4.25;;;1.30;;
39022;SDS011;25908;51.984;5.928;2023-07-13T01:39:29;3.78;;;1.20;;
39022;SDS011;25908;51.984;5.928;2023-07-13T01:41:56;4.97;;;2.13;;
39022;SDS011;25908;51.984;5.928;2023-07-13T01:44:22;6.13;;;1.45;;
39022;SDS011;25908;51.984;5.928;2023-07-13T01:46:48;3.33;;;1.20;;
39022;SDS011;25908;51.984;5.928;2023-07-13T01:49:13;5.93;;;1.33;;
39022;SDS011;25908;51.984;5.928;2023-07-13T01:51:39;3.83;;;1.10;;
39022;SDS011;25908;51.984;5.928;2023-07-13T01:54:04;5.95;;;1.77;;
39022;SDS011;25908;51.984;5.928;2023-07-13T01:56:30;3.67;;;1.52;;
39022;SDS011;25908;51.984;5.928;2023-07-13T01:58:56;4.40;;;1.35;;
39022;SDS011;25908;51.984;5.928;2023-07-13T02:01:22;4.97;;;1.40;;
39022;SDS011;25908;51.984;5.928;2023-07-13T02:03:47;3.78;;;1.60;;
39022;SDS011;25908;51.984;5.928;2023-07-13T02:06:13;4.28;;;1.25;;
39022;SDS011;25908;51.984;5.928;2023-07-13T02:08:40;5.88;;;1.63;;
39022;SDS011;25908;51.984;5.928;2023-07-13T02:11:05;6.38;;;1.60;;
39022;SDS011;25908;51.984;5.928;2023-07-13T02:13:31;5.72;;;2.10;;
39022;SDS011;25908;51.984;5.928;2023-07-13T02:15:57;5.25;;;1.40;;
39022;SDS011;25908;51.984;5.928;2023-07-13T02:18:22;4.53;;;1.63;;
39022;SDS011;25908;51.984;5.928;2023-07-13T02:20:48;7.50;;;1.20;;
39022;SDS011;25908;51.984;5.928;2023-07-13T02:23:14;4.97;;;1.55;;
39022;SDS011;25908;51.984;5.928;2023-07-13T02:25:39;3.78;;;1.65;;
39022;SDS011;25908;51.984;5.928;2023-07-13T02:28:05;4.97;;;1.50;;
39022;SDS011;25908;51.984;5.928;2023-07-13T02:30:31;4.68;;;1.48;;
39022;SDS011;25908;51.984;5.928;2023-07-13T02:32:57;5.28;;;2.22;;
39022;SDS011;25908;51.984;5.928;2023-07-13T02:35:23;5.40;;;2.15;;
39022;SDS011;25908;51.984;5.928;2023-07-13T02:37:48;5.60;;;1.65;;
39022;SDS011;25908;51.984;5.928;2023-07-13T02:40:14;3.42;;;1.27;;
39022;SDS011;25908;51.984;5.928;2023-07-13T02:42:40;4.95;;;1.63;;
39022;SDS011;25908;51.984;5.928;2023-07-13T02:45:07;4.60;;;1.80;;
39022;SDS011;25908;51.984;5.928;2023-07-13T02:47:33;5.80;;;1.73;;
39022;SDS011;25908;51.984;5.928;2023-07-13T02:50:00;6.47;;;1.83;;
39022;SDS011;25908;51.984;5.928;2023-07-13T02:52:26;4.68;;;1.58;;
39022;SDS011;25908;51.984;5.928;2023-07-13T02:54:51;7.80;;;2.50;;
39022;SDS011;25908;51.984;5.928;2023-07-13T02:57:17;3.40;;;1.48;;
39022;SDS011;25908;51.984;5.928;2023-07-13T02:59:43;10.07;;;2.05;;
39022;SDS011;25908;51.984;5.928;2023-07-13T03:02:08;9.27;;;2.05;;
39022;SDS011;25908;51.984;5.928;2023-07-13T03:04:35;6.90;;;1.88;;
39022;SDS011;25908;51.984;5.928;2023-07-13T03:07:02;5.72;;;1.80;;
39022;SDS011;25908;51.984;5.928;2023-07-13T03:09:28;5.78;;;1.75;;
39022;SDS011;25908;51.984;5.928;2023-07-13T03:11:54;6.78;;;2.28;;
39022;SDS011;25908;51.984;5.928;2023-07-13T03:14:21;8.13;;;1.80;;
39022;SDS011;25908;51.984;5.928;2023-07-13T03:16:47;8.65;;;2.20;;
39022;SDS011;25908;51.984;5.928;2023-07-13T03:19:13;6.20;;;2.03;;
39022;SDS011;25908;51.984;5.928;2023-07-13T03:21:39;8.43;;;2.00;;
39022;SDS011;25908;51.984;5.928;2023-07-13T03:24:04;11.23;;;2.03;;
39022;SDS011;25908;51.984;5.928;2023-07-13T03:26:30;7.45;;;2.60;;
39022;SDS011;25908;51.984;5.928;2023-07-13T03:28:56;6.55;;;2.20;;
39022;SDS011;25908;51.984;5.928;2023-07-13T03:31:24;5.57;;;2.10;;
39022;SDS011;25908;51.984;5.928;2023-07-13T03:33:52;6.80;;;2.00;;
39022;SDS011;25908;51.984;5.928;2023-07-13T03:36:21;8.35;;;2.30;;
39022;SDS011;25908;51.984;5.928;2023-07-13T03:38:53;7.28;;;2.40;;
39022;SDS011;25908;51.984;5.928;2023-07-13T03:41:21;7.38;;;2.88;;
39022;SDS011;25908;51.984;5.928;2023-07-13T03:43:48;8.00;;;2.15;;
39022;SDS011;25908;51.984;5.928;2023-07-13T03:46:14;6.97;;;2.13;;
39022;SDS011;25908;51.984;5.928;2023-07-13T03:48:41;5.68;;;2.83;;
39022;SDS011;25908;51.984;5.928;2023-07-13T03:51:09;7.30;;;2.72;;
39022;SDS011;25908;51.984;5.928;2023-07-13T03:53:38;6.00;;;2.40;;
39022;SDS011;25908;51.984;5.928;2023-07-13T03:56:05;7.25;;;2.10;;
39022;SDS011;25908;51.984;5.928;2023-07-13T03:58:35;6.05;;;2.15;;
39022;SDS011;25908;51.984;5.928;2023-07-13T04:01:04;8.10;;;2.30;;
39022;SDS011;25908;51.984;5.928;2023-07-13T04:03:32;7.07;;;2.40;;
39022;SDS011;25908;51.984;5.928;2023-07-13T04:06:02;5.80;;;2.20;;
39022;SDS011;25908;51.984;5.928;2023-07-13T04:08:30;4.53;;;1.75;;
39022;SDS011;25908;51.984;5.928;2023-07-13T04:11:03;6.28;;;2.28;;
39022;SDS011;25908;51.984;5.928;2023-07-13T04:13:29;8.52;;;2.60;;
39022;SDS011;25908;51.984;5.928;2023-07-13T04:15:55;5.72;;;2.00;;
39022;SDS011;25908;51.984;5.928;2023-07-13T04:18:21;6.63;;;2.85;;
39022;SDS011;25908;51.984;5.928;2023-07-13T04:20:47;5.53;;;2.30;;
39022;SDS011;25908;51.984;5.928;2023-07-13T04:23:14;8.45;;;2.13;;
39022;SDS011;25908;51.984;5.928;2023-07-13T04:25:43;9.50;;;2.80;;
39022;SDS011;25908;51.984;5.928;2023-07-13T04:28:10;8.52;;;2.72;;
39022;SDS011;25908;51.984;5.928;2023-07-13T04:30:35;6.80;;;2.30;;
39022;SDS011;25908;51.984;5.928;2023-07-13T04:33:01;9.00;;;3.20;;
39022;SDS011;25908;51.984;5.928;2023-07-13T04:35:27;7.03;;;2.30;;
39022;SDS011;25908;51.984;5.928;2023-07-13T04:37:52;9.13;;;2.72;;
39022;SDS011;25908;51.984;5.928;2023-07-13T04:40:18;7.32;;;2.92;;
39022;SDS011;25908;51.984;5.928;2023-07-13T04:42:45;9.98;;;2.75;;
39022;SDS011;25908;51.984;5.928;2023-07-13T04:45:12;8.45;;;3.10;;
39022;SDS011;25908;51.984;5.928;2023-07-13T04:47:39;6.28;;;2.50;;
39022;SDS011;25908;51.984;5.928;2023-07-13T04:50:05;8.05;;;3.00;;
39022;SDS011;25908;51.984;5.928;2023-07-13T04:52:31;8.43;;;2.88;;
39022;SDS011;25908;51.984;5.928;2023-07-13T04:54:58;11.23;;;3.47;;
39022;SDS011;25908;51.984;5.928;2023-07-13T04:57:24;10.70;;;4.25;;
39022;SDS011;25908;51.984;5.928;2023-07-13T04:59:50;8.50;;;2.60;;
39022;SDS011;25908;51.984;5.928;2023-07-13T05:02:16;7.15;;;2.60;;
39022;SDS011;25908;51.984;5.928;2023-07-13T05:04:41;9.30;;;3.10;;
39022;SDS011;25908;51.984;5.928;2023-07-13T05:07:07;10.18;;;2.88;;
39022;SDS011;25908;51.984;5.928;2023-07-13T05:09:33;9.20;;;3.40;;
39022;SDS011;25908;51.984;5.928;2023-07-13T05:11:58;9.15;;;2.95;;
39022;SDS011;25908;51.984;5.928;2023-07-13T05:14:24;14.68;;;3.65;;
39022;SDS011;25908;51.984;5.928;2023-07-13T05:16:50;11.07;;;3.72;;
39022;SDS011;25908;51.984;5.928;2023-07-13T05:19:15;9.02;;;3.33;;
39022;SDS011;25908;51.984;5.928;2023-07-13T05:21:41;9.63;;;3.08;;
39022;SDS011;25908;51.984;5.928;2023-07-13T05:24:06;7.15;;;2.95;;
39022;SDS011;25908;51.984;5.928;2023-07-13T05:26:32;11.05;;;3.58;;
39022;SDS011;25908;51.984;5.928;2023-07-13T05:28:58;11.45;;;3.38;;
39022;SDS011;25908;51.984;5.928;2023-07-13T05:31:24;9.90;;;3.35;;
39022;SDS011;25908;51.984;5.928;2023-07-13T05:33:50;10.90;;;3.63;;
39022;SDS011;25908;51.984;5.928;2023-07-13T05:36:15;10.38;;;3.28;;
39022;SDS011;25908;51.984;5.928;2023-07-13T05:38:41;9.60;;;3.33;;
39022;SDS011;25908;51.984;5.928;2023-07-13T05:41:07;8.93;;;3.22;;
39022;SDS011;25908;51.984;5.928;2023-07-13T05:43:33;8.40;;;3.40;;
39022;SDS011;25908;51.984;5.928;2023-07-13T05:45:59;13.48;;;3.92;;
39022;SDS011;25908;51.984;5.928;2023-07-13T05:48:24;10.80;;;4.05;;
39022;SDS011;25908;51.984;5.928;2023-07-13T05:50:50;12.18;;;3.53;;
39022;SDS011;25908;51.984;5.928;2023-07-13T05:53:15;9.50;;;3.67;;
39022;SDS011;25908;51.984;5.928;2023-07-13T05:55:45;11.40;;;4.13;;
39022;SDS011;25908;51.984;5.928;2023-07-13T05:58:18;14.65;;;4.20;;
39022;SDS011;25908;51.984;5.928;2023-07-13T06:00:44;13.13;;;4.82;;
39022;SDS011;25908;51.984;5.928;2023-07-13T06:03:11;13.95;;;4.95;;
39022;SDS011;25908;51.984;5.928;2023-07-13T06:05:36;13.75;;;4.80;;
39022;SDS011;25908;51.984;5.928;2023-07-13T06:08:04;12.43;;;5.38;;
39022;SDS011;25908;51.984;5.928;2023-07-13T06:10:34;12.40;;;5.32;;
39022;SDS011;25908;51.984;5.928;2023-07-13T06:13:00;9.25;;;4.35;;
39022;SDS011;25908;51.984;5.928;2023-07-13T06:15:26;14.27;;;5.63;;
39022;SDS011;25908;51.984;5.928;2023-07-13T06:17:52;10.68;;;5.00;;
39022;SDS011;25908;51.984;5.928;2023-07-13T06:20:17;10.48;;;5.90;;
39022;SDS011;25908;51.984;5.928;2023-07-13T06:22:43;13.93;;;5.53;;
39022;SDS011;25908;51.984;5.928;2023-07-13T06:25:09;13.80;;;5.90;;
39022;SDS011;25908;51.984;5.928;2023-07-13T06:27:34;14.88;;;7.28;;
39022;SDS011;25908;51.984;5.928;2023-07-13T06:30:00;13.73;;;6.47;;
39022;SDS011;25908;51.984;5.928;2023-07-13T06:32:26;14.90;;;6.82;;
39022;SDS011;25908;51.984;5.928;2023-07-13T06:34:52;13.45;;;6.85;;
39022;SDS011;25908;51.984;5.928;2023-07-13T06:37:18;12.13;;;7.10;;
39022;SDS011;25908;51.984;5.928;2023-07-13T06:39:44;11.98;;;6.00;;
39022;SDS011;25908;51.984;5.928;2023-07-13T06:42:09;18.10;;;6.70;;
39022;SDS011;25908;51.984;5.928;2023-07-13T06:44:35;12.05;;;6.65;;
39022;SDS011;25908;51.984;5.928;2023-07-13T06:47:01;15.90;;;6.80;;
39022;SDS011;25908;51.984;5.928;2023-07-13T06:49:27;10.05;;;6.20;;
39022;SDS011;25908;51.984;5.928;2023-07-13T06:51:53;18.02;;;8.32;;
39022;SDS011;25908;51.984;5.928;2023-07-13T06:54:18;11.85;;;5.90;;
39022;SDS011;25908;51.984;5.928;2023-07-13T06:56:44;14.85;;;6.45;;
39022;SDS011;25908;51.984;5.928;2023-07-13T06:59:09;10.93;;;6.95;;
39022;SDS011;25908;51.984;5.928;2023-07-13T07:01:35;13.68;;;6.57;;
39022;SDS011;25908;51.984;5.928;2023-07-13T07:04:01;15.30;;;7.75;;
39022;SDS011;25908;51.984;5.928;2023-07-13T07:06:27;10.13;;;6.40;;
39022;SDS011;25908;51.984;5.928;2023-07-13T07:08:53;13.35;;;7.13;;
39022;SDS011;25908;51.984;5.928;2023-07-13T07:11:20;13.90;;;7.03;;
39022;SDS011;25908;51.984;5.928;2023-07-13T07:13:48;13.02;;;8.05;;
39022;SDS011;25908;51.984;5.928;2023-07-13T07:16:14;12.27;;;7.18;;
39022;SDS011;25908;51.984;5.928;2023-07-13T07:18:40;11.00;;;6.88;;
39022;SDS011;25908;51.984;5.928;2023-07-13T07:21:05;12.43;;;7.47;;
39022;SDS011;25908;51.984;5.928;2023-07-13T07:23:31;12.43;;;6.75;;
39022;SDS011;25908;51.984;5.928;2023-07-13T07:25:57;10.07;;;6.40;;
39022;SDS011;25908;51.984;5.928;2023-07-13T07:28:23;15.38;;;7.82;;
39022;SDS011;25908;51.984;5.928;2023-07-13T07:30:49;13.60;;;7.22;;
39022;SDS011;25908;51.984;5.928;2023-07-13T07:33:18;10.63;;;5.93;;
39022;SDS011;25908;51.984;5.928;2023-07-13T07:35:44;12.88;;;7.03;;
39022;SDS011;25908;51.984;5.928;2023-07-13T07:38:09;14.93;;;7.07;;
39022;SDS011;25908;51.984;5.928;2023-07-13T07:40:38;16.60;;;7.60;;
39022;SDS011;25908;51.984;5.928;2023-07-13T07:43:08;12.20;;;7.60;;
39022;SDS011;25908;51.984;5.928;2023-07-13T07:45:35;12.18;;;6.70;;
39022;SDS011;25908;51.984;5.928;2023-07-13T07:48:03;9.77;;;6.45;;
39022;SDS011;25908;51.984;5.928;2023-07-13T07:50:29;12.07;;;6.45;;
39022;SDS011;25908;51.984;5.928;2023-07-13T07:52:55;14.55;;;7.68;;
39022;SDS011;25908;51.984;5.928;2023-07-13T07:55:21;17.63;;;7.30;;
39022;SDS011;25908;51.984;5.928;2023-07-13T07:57:48;15.63;;;7.78;;
39022;SDS011;25908;51.984;5.928;2023-07-13T08:00:14;12.02;;;7.22;;
39022;SDS011;25908;51.984;5.928;2023-07-13T08:02:41;15.48;;;7.97;;
39022;SDS011;25908;51.984;5.928;2023-07-13T08:05:09;13.75;;;7.18;;
39022;SDS011;25908;51.984;5.928;2023-07-13T08:07:35;13.23;;;7.07;;
39022;SDS011;25908;51.984;5.928;2023-07-13T08:10:02;16.35;;;8.32;;
39022;SDS011;25908;51.984;5.928;2023-07-13T08:12:28;11.95;;;7.43;;
39022;SDS011;25908;51.984;5.928;2023-07-13T08:14:54;12.57;;;7.35;;
39022;SDS011;25908;51.984;5.928;2023-07-13T08:17:22;12.70;;;7.30;;
39022;SDS011;25908;51.984;5.928;2023-07-13T08:19:49;12.68;;;7.78;;
39022;SDS011;25908;51.984;5.928;2023-07-13T08:22:15;12.75;;;7.97;;
39022;SDS011;25908;51.984;5.928;2023-07-13T08:24:40;10.77;;;7.07;;
39022;SDS011;25908;51.984;5.928;2023-07-13T08:27:07;12.52;;;7.32;;
39022;SDS011;25908;51.984;5.928;2023-07-13T08:29:33;12.27;;;6.50;;
39022;SDS011;25908;51.984;5.928;2023-07-13T08:31:59;12.95;;;7.50;;
39022;SDS011;25908;51.984;5.928;2023-07-13T08:34:25;12.60;;;7.35;;
39022;SDS011;25908;51.984;5.928;2023-07-13T08:36:51;12.65;;;6.43;;
39022;SDS011;25908;51.984;5.928;2023-07-13T08:39:17;14.73;;;6.75;;
39022;SDS011;25908;51.984;5.928;2023-07-13T08:41:44;11.02;;;6.10;;
39022;SDS011;25908;51.984;5.928;2023-07-13T08:44:23;8.40;;;5.78;;
39022;SDS011;25908;51.984;5.928;2023-07-13T08:46:58;15.38;;;6.53;;
39022;SDS011;25908;51.984;5.928;2023-07-13T08:49:24;9.32;;;5.30;;
39022;SDS011;25908;51.984;5.928;2023-07-13T08:52:51;11.00;;;5.57;;
39022;SDS011;25908;51.984;5.928;2023-07-13T08:54:52;11.40;;;6.28;;
39022;SDS011;25908;51.984;5.928;2023-07-13T08:57:23;12.00;;;6.18;;
39022;SDS011;25908;51.984;5.928;2023-07-13T08:59:55;10.35;;;5.28;;
39022;SDS011;25908;51.984;5.928;2023-07-13T09:02:56;11.13;;;5.20;;
39022;SDS011;25908;51.984;5.928;2023-07-13T09:05:37;12.13;;;6.35;;
39022;SDS011;25908;51.984;5.928;2023-07-13T09:10:49;8.73;;;5.20;;
39022;SDS011;25908;51.984;5.928;2023-07-13T09:13:26;8.80;;;4.57;;
39022;SDS011;25908;51.984;5.928;2023-07-13T09:16:02;7.55;;;4.60;;
39022;SDS011;25908;51.984;5.928;2023-07-13T09:18:32;8.20;;;4.28;;
39022;SDS011;25908;51.984;5.928;2023-07-13T09:21:00;9.75;;;5.10;;
39022;SDS011;25908;51.984;5.928;2023-07-13T09:23:36;9.45;;;4.18;;
39022;SDS011;25908;51.984;5.928;2023-07-13T09:28:44;9.30;;;3.67;;
39022;SDS011;25908;51.984;5.928;2023-07-13T09:31:37;8.80;;;3.60;;
39022;SDS011;25908;51.984;5.928;2023-07-13T09:34:11;7.95;;;4.18;;
39022;SDS011;25908;51.984;5.928;2023-07-13T09:36:38;8.48;;;4.50;;
39022;SDS011;25908;51.984;5.928;2023-07-13T09:44:18;9.60;;;5.13;;
39022;SDS011;25908;51.984;5.928;2023-07-13T09:46:58;6.30;;;3.03;;
39022;SDS011;25908;51.984;5.928;2023-07-13T09:49:28;6.38;;;2.75;;
39022;SDS011;25908;51.984;5.928;2023-07-13T09:54:35;5.00;;;2.72;;
39022;SDS011;25908;51.984;5.928;2023-07-13T09:57:02;5.50;;;2.58;;
39022;SDS011;25908;51.984;5.928;2023-07-13T09:59:30;6.13;;;2.78;;
39022;SDS011;25908;51.984;5.928;2023-07-13T10:02:01;7.97;;;3.22;;
39022;SDS011;25908;51.984;5.928;2023-07-13T10:04:30;7.65;;;5.05;;
39022;SDS011;25908;51.984;5.928;2023-07-13T10:07:11;21.45;;;13.23;;
39022;SDS011;25908;51.984;5.928;2023-07-13T10:09:40;14.98;;;8.73;;
39022;SDS011;25908;51.984;5.928;2023-07-13T10:12:13;11.73;;;5.38;;
39022;SDS011;25908;51.984;5.928;2023-07-13T10:14:39;10.20;;;4.18;;
39022;SDS011;25908;51.984;5.928;2023-07-13T10:17:08;6.22;;;3.13;;
39022;SDS011;25908;51.984;5.928;2023-07-13T10:19:38;6.85;;;2.83;;
39022;SDS011;25908;51.984;5.928;2023-07-13T10:25:02;6.65;;;3.22;;
39022;SDS011;25908;51.984;5.928;2023-07-13T10:27:34;8.05;;;2.88;;
39022;SDS011;25908;51.984;5.928;2023-07-13T10:32:38;6.68;;;2.60;;
39022;SDS011;25908;51.984;5.928;2023-07-13T10:35:05;9.38;;;3.60;;
39022;SDS011;25908;51.984;5.928;2023-07-13T10:37:51;6.97;;;2.97;;
39022;SDS011;25908;51.984;5.928;2023-07-13T10:40:23;7.28;;;3.05;;
39022;SDS011;25908;51.984;5.928;2023-07-13T10:42:55;8.00;;;2.70;;
39022;SDS011;25908;51.984;5.928;2023-07-13T10:45:24;6.07;;;2.40;;
39022;SDS011;25908;51.984;5.928;2023-07-13T10:47:52;6.53;;;2.30;;
39022;SDS011;25908;51.984;5.928;2023-07-13T10:50:24;4.78;;;2.20;;
39022;SDS011;25908;51.984;5.928;2023-07-13T10:52:53;7.05;;;2.88;;
39022;SDS011;25908;51.984;5.928;2023-07-13T10:55:40;7.30;;;3.05;;
39022;SDS011;25908;51.984;5.928;2023-07-13T10:58:20;6.35;;;3.08;;
39022;SDS011;25908;51.984;5.928;2023-07-13T11:01:07;9.38;;;3.30;;
39022;SDS011;25908;51.984;5.928;2023-07-13T11:06:16;5.40;;;2.40;;
39022;SDS011;25908;51.984;5.928;2023-07-13T11:12:02;5.97;;;2.00;;
39022;SDS011;25908;51.984;5.928;2023-07-13T11:17:29;5.55;;;2.17;;
39022;SDS011;25908;51.984;5.928;2023-07-13T11:22:51;5.50;;;2.78;;
39022;SDS011;25908;51.984;5.928;2023-07-13T11:25:32;7.03;;;2.88;;
39022;SDS011;25908;51.984;5.928;2023-07-13T11:30:38;5.07;;;1.98;;
39022;SDS011;25908;51.984;5.928;2023-07-13T11:33:25;4.88;;;1.88;;
39022;SDS011;25908;51.984;5.928;2023-07-13T11:36:06;4.18;;;1.80;;
39022;SDS011;25908;51.984;5.928;2023-07-13T11:38:39;4.65;;;1.60;;
39022;SDS011;25908;51.984;5.928;2023-07-13T11:41:13;3.50;;;1.40;;
39022;SDS011;25908;51.984;5.928;2023-07-13T11:43:44;4.95;;;1.40;;
39022;SDS011;25908;51.984;5.928;2023-07-13T11:46:20;5.95;;;1.58;;
39022;SDS011;25908;51.984;5.928;2023-07-13T11:48:50;4.03;;;1.60;;
39022;SDS011;25908;51.984;5.928;2023-07-13T11:51:27;2.47;;;1.20;;
39022;SDS011;25908;51.984;5.928;2023-07-13T11:53:56;3.22;;;1.40;;
39022;SDS011;25908;51.984;5.928;2023-07-13T11:56:33;3.85;;;1.35;;
39022;SDS011;25908;51.984;5.928;2023-07-13T11:58:59;3.00;;;1.60;;
39022;SDS011;25908;51.984;5.928;2023-07-13T12:01:33;3.35;;;1.48;;
39022;SDS011;25908;51.984;5.928;2023-07-13T12:04:02;4.35;;;1.70;;
39022;SDS011;25908;51.984;5.928;2023-07-13T12:09:02;4.82;;;1.63;;
39022;SDS011;25908;51.984;5.928;2023-07-13T12:11:37;7.93;;;2.22;;
39022;SDS011;25908;51.984;5.928;2023-07-13T12:14:05;3.47;;;1.42;;
39022;SDS011;25908;51.984;5.928;2023-07-13T12:16:32;3.42;;;2.03;;
39022;SDS011;25908;51.984;5.928;2023-07-13T12:19:01;3.92;;;1.80;;
39022;SDS011;25908;51.984;5.928;2023-07-13T12:21:39;5.32;;;1.92;;
39022;SDS011;25908;51.984;5.928;2023-07-13T12:24:13;6.22;;;1.77;;
39022;SDS011;25908;51.984;5.928;2023-07-13T12:26:41;6.60;;;2.47;;
39022;SDS011;25908;51.984;5.928;2023-07-13T12:29:06;3.45;;;1.50;;
39022;SDS011;25908;51.984;5.928;2023-07-13T12:31:36;3.25;;;1.55;;
39022;SDS011;25908;51.984;5.928;2023-07-13T12:34:10;3.97;;;1.90;;
39022;SDS011;25908;51.984;5.928;2023-07-13T12:41:43;5.53;;;2.05;;
39022;SDS011;25908;51.984;5.928;2023-07-13T12:44:31;4.32;;;2.28;;
39022;SDS011;25908;51.984;5.928;2023-07-13T12:47:03;4.47;;;1.50;;
39022;SDS011;25908;51.984;5.928;2023-07-13T12:49:39;5.60;;;2.03;;
39022;SDS011;25908;51.984;5.928;2023-07-13T12:52:14;4.10;;;1.48;;
39022;SDS011;25908;51.984;5.928;2023-07-13T12:54:56;3.45;;;1.35;;
39022;SDS011;25908;51.984;5.928;2023-07-13T12:57:24;2.83;;;1.52;;
39022;SDS011;25908;51.984;5.928;2023-07-13T12:59:54;4.20;;;1.33;;
39022;SDS011;25908;51.984;5.928;2023-07-13T13:04:48;2.83;;;1.02;;
39022;SDS011;25908;51.984;5.928;2023-07-13T13:07:14;5.95;;;1.52;;
39022;SDS011;25908;51.984;5.928;2023-07-13T13:09:40;3.67;;;1.45;;
39022;SDS011;25908;51.984;5.928;2023-07-13T13:12:05;3.25;;;1.33;;
39022;SDS011;25908;51.984;5.928;2023-07-13T13:14:31;3.33;;;1.65;;
39022;SDS011;25908;51.984;5.928;2023-07-13T13:16:57;5.50;;;1.60;;
39022;SDS011;25908;51.984;5.928;2023-07-13T13:19:24;3.63;;;1.40;;
39022;SDS011;25908;51.984;5.928;2023-07-13T13:21:53;2.42;;;1.30;;
39022;SDS011;25908;51.984;5.928;2023-07-13T13:24:22;3.95;;;1.70;;
39022;SDS011;25908;51.984;5.928;2023-07-13T13:26:50;5.10;;;1.50;;
39022;SDS011;25908;51.984;5.928;2023-07-13T13:29:20;3.20;;;1.63;;
39022;SDS011;25908;51.984;5.928;2023-07-13T13:31:49;2.50;;;1.45;;
39022;SDS011;25908;51.984;5.928;2023-07-13T13:34:17;3.83;;;1.75;;
39022;SDS011;25908;51.984;5.928;2023-07-13T13:36:44;6.10;;;1.80;;
39022;SDS011;25908;51.984;5.928;2023-07-13T13:39:24;5.38;;;2.15;;
39022;SDS011;25908;51.984;5.928;2023-07-13T13:41:54;3.92;;;1.60;;
39022;SDS011;25908;51.984;5.928;2023-07-13T13:44:21;2.70;;;1.50;;
39022;SDS011;25908;51.984;5.928;2023-07-13T13:46:50;4.78;;;1.88;;
39022;SDS011;25908;51.984;5.928;2023-07-13T13:49:19;2.97;;;1.35;;
39022;SDS011;25908;51.984;5.928;2023-07-13T13:51:49;4.32;;;1.70;;
39022;SDS011;25908;51.984;5.928;2023-07-13T13:54:16;3.70;;;1.65;;
39022;SDS011;25908;51.984;5.928;2023-07-13T13:56:43;4.43;;;1.75;;
39022;SDS011;25908;51.984;5.928;2023-07-13T13:59:11;3.50;;;1.95;;
39022;SDS011;25908;51.984;5.928;2023-07-13T14:01:37;4.90;;;1.60;;
39022;SDS011;25908;51.984;5.928;2023-07-13T14:04:03;2.28;;;1.20;;
39022;SDS011;25908;51.984;5.928;2023-07-13T14:06:30;2.45;;;1.30;;
39022;SDS011;25908;51.984;5.928;2023-07-13T14:08:57;3.08;;;1.35;;
39022;SDS011;25908;51.984;5.928;2023-07-13T14:11:24;3.85;;;1.70;;
39022;SDS011;25908;51.984;5.928;2023-07-13T14:13:56;2.80;;;1.50;;
39022;SDS011;25908;51.984;5.928;2023-07-13T14:16:26;2.53;;;1.30;;
39022;SDS011;25908;51.984;5.928;2023-07-13T14:18:54;4.32;;;1.40;;
39022;SDS011;25908;51.984;5.928;2023-07-13T14:21:23;5.40;;;1.65;;
39022;SDS011;25908;51.984;5.928;2023-07-13T14:23:49;4.38;;;1.77;;
39022;SDS011;25908;51.984;5.928;2023-07-13T14:26:16;2.97;;;1.63;;
39022;SDS011;25908;51.984;5.928;2023-07-13T14:28:45;2.63;;;1.40;;
39022;SDS011;25908;51.984;5.928;2023-07-13T14:31:13;3.55;;;1.30;;
39022;SDS011;25908;51.984;5.928;2023-07-13T14:33:40;3.65;;;1.52;;
39022;SDS011;25908;51.984;5.928;2023-07-13T14:36:48;2.70;;;1.70;;
39022;SDS011;25908;51.984;5.928;2023-07-13T14:39:00;3.03;;;1.58;;
39022;SDS011;25908;51.984;5.928;2023-07-13T14:41:33;2.40;;;1.55;;
39022;SDS011;25908;51.984;5.928;2023-07-13T14:43:59;3.65;;;1.60;;
39022;SDS011;25908;51.984;5.928;2023-07-13T14:46:29;2.70;;;1.20;;
39022;SDS011;25908;51.984;5.928;2023-07-13T14:49:03;2.83;;;1.50;;
39022;SDS011;25908;51.984;5.928;2023-07-13T14:51:34;3.15;;;1.40;;
39022;SDS011;25908;51.984;5.928;2023-07-13T14:54:02;3.60;;;1.27;;
39022;SDS011;25908;51.984;5.928;2023-07-13T14:56:29;3.10;;;1.58;;
39022;SDS011;25908;51.984;5.928;2023-07-13T14:58:55;2.63;;;1.70;;
39022;SDS011;25908;51.984;5.928;2023-07-13T15:01:20;5.60;;;1.60;;
39022;SDS011;25908;51.984;5.928;2023-07-13T15:03:47;2.55;;;1.30;;
39022;SDS011;25908;51.984;5.928;2023-07-13T15:06:15;2.90;;;1.40;;
39022;SDS011;25908;51.984;5.928;2023-07-13T15:08:41;2.83;;;1.67;;
39022;SDS011;25908;51.984;5.928;2023-07-13T15:11:07;2.47;;;1.40;;
39022;SDS011;25908;51.984;5.928;2023-07-13T15:13:36;4.03;;;1.60;;
39022;SDS011;25908;51.984;5.928;2023-07-13T15:16:03;3.10;;;1.40;;
39022;SDS011;25908;51.984;5.928;2023-07-13T15:18:34;4.88;;;1.75;;
39022;SDS011;25908;51.984;5.928;2023-07-13T15:21:02;5.57;;;1.38;;
39022;SDS011;25908;51.984;5.928;2023-07-13T15:23:29;3.72;;;1.60;;
39022;SDS011;25908;51.984;5.928;2023-07-13T15:25:54;3.08;;;1.45;;
39022;SDS011;25908;51.984;5.928;2023-07-13T15:28:20;3.28;;;1.88;;
39022;SDS011;25908;51.984;5.928;2023-07-13T15:30:47;3.45;;;1.73;;
39022;SDS011;25908;51.984;5.928;2023-07-13T15:33:27;3.25;;;1.17;;
39022;SDS011;25908;51.984;5.928;2023-07-13T15:38:21;4.22;;;1.98;;